createdAt,value
2023-01-17T00:04:55.491Z,1
2023-01-17T00:10:56.917Z,1
2023-01-17T00:17:11.540Z,1
2023-01-17T00:22:52.864Z,1
2023-01-17T00:28:53.245Z,2
2023-01-17T00:34:54.406Z,2
2023-01-17T00:41:01.027Z,1
2023-01-17T00:46:54.812Z,2
2023-01-17T00:52:55.457Z,2
2023-01-17T00:58:52.799Z,2
2023-01-17T01:04:54.534Z,2
2023-01-17T01:10:55.601Z,1
2023-01-17T01:16:52.467Z,1
2023-01-17T01:22:55.134Z,2
2023-01-17T01:28:52.315Z,1
2023-01-17T01:34:52.680Z,1
2023-01-17T01:40:59.748Z,1
2023-01-17T01:46:54.555Z,1
2023-01-17T01:52:54.006Z,1
2023-01-17T01:58:54.267Z,1
2023-01-17T02:05:03.023Z,1
2023-01-17T02:10:53.419Z,1
2023-01-17T02:16:57.897Z,1
2023-01-17T02:25:52.363Z,1
2023-01-17T02:31:52.054Z,1
2023-01-17T02:37:52.109Z,2
2023-01-17T02:43:52.202Z,3
2023-01-17T02:49:52.738Z,3
2023-01-17T03:07:52.326Z,3
2023-01-17T03:13:53.525Z,3
2023-01-17T03:19:54.522Z,4
2023-01-17T03:26:00.886Z,3
2023-01-17T03:31:56.698Z,2
2023-01-17T03:37:52.950Z,3
2023-01-17T03:43:52.722Z,2
2023-01-17T03:49:52.551Z,3
2023-01-17T03:55:52.288Z,3
2023-01-17T04:01:53.339Z,2
2023-01-17T04:07:52.348Z,3
2023-01-17T04:13:52.273Z,2
2023-01-17T04:19:52.758Z,2
2023-01-17T04:25:52.250Z,2
2023-01-17T04:31:52.848Z,2
2023-01-17T04:37:52.648Z,3
2023-01-17T04:43:52.708Z,2
2023-01-17T04:49:53.070Z,2
2023-01-17T04:55:52.414Z,3
2023-01-17T05:01:52.779Z,3
2023-01-17T05:07:52.719Z,5
2023-01-17T05:13:52.620Z,3
2023-01-17T05:19:52.666Z,3
2023-01-17T05:25:52.391Z,3
2023-01-17T05:31:52.323Z,3
2023-01-17T05:37:53.000Z,3
2023-01-17T05:43:52.871Z,3
2023-01-17T05:49:52.445Z,3
2023-01-17T05:55:52.351Z,3
2023-01-17T06:01:52.302Z,3
2023-01-17T06:07:53.042Z,3
2023-01-17T06:13:52.517Z,3
2023-01-17T06:19:52.743Z,4
2023-01-17T06:25:52.392Z,3
2023-01-17T06:31:52.551Z,3
2023-01-17T06:37:53.110Z,4
2023-01-17T06:43:52.611Z,3
2023-01-17T06:49:53.333Z,4
2023-01-17T06:55:52.611Z,3
2023-01-17T07:01:52.711Z,3
2023-01-17T07:07:53.093Z,4
2023-01-17T07:13:52.425Z,3
2023-01-17T07:19:52.553Z,5
2023-01-17T07:25:53.401Z,4
2023-01-17T07:31:53.096Z,5
2023-01-17T07:37:52.919Z,4
2023-01-17T07:43:54.332Z,4
2023-01-17T07:49:52.625Z,4
2023-01-17T07:55:53.673Z,4
2023-01-17T08:01:52.873Z,4
2023-01-17T08:07:52.793Z,4
2023-01-17T08:13:52.533Z,4
2023-01-17T08:19:52.901Z,4
2023-01-17T08:25:53.971Z,4
2023-01-17T08:31:52.907Z,4
2023-01-17T08:37:54.328Z,4
2023-01-17T08:43:52.511Z,4
2023-01-17T08:49:52.841Z,5
2023-01-17T08:55:52.477Z,5
2023-01-17T09:01:53.222Z,4
2023-01-17T09:07:52.553Z,4
2023-01-17T09:13:52.691Z,4
2023-01-17T09:19:53.038Z,4
2023-01-17T09:25:52.425Z,5
2023-01-17T09:31:52.832Z,5
2023-01-17T09:37:52.640Z,4
2023-01-17T09:43:52.471Z,4
2023-01-17T09:49:52.832Z,4
2023-01-17T09:55:52.427Z,4
2023-01-17T10:01:52.732Z,4
2023-01-17T10:07:52.258Z,4
2023-01-17T10:13:52.265Z,4
2023-01-17T10:19:52.238Z,4
2023-01-17T10:25:52.199Z,4
2023-01-17T10:31:52.734Z,4
2023-01-17T10:37:52.572Z,4
2023-01-17T10:43:52.405Z,3
2023-01-17T10:49:52.465Z,3
2023-01-17T10:55:52.427Z,4
2023-01-17T11:01:52.568Z,4
2023-01-17T11:07:52.619Z,3
2023-01-17T11:13:52.980Z,3
2023-01-17T11:19:52.935Z,3
2023-01-17T11:25:52.461Z,3
2023-01-17T11:31:52.548Z,3
2023-01-17T11:37:52.779Z,3
2023-01-17T11:43:52.839Z,3
2023-01-17T11:49:52.734Z,3
2023-01-17T11:55:52.496Z,3
2023-01-17T12:01:52.656Z,2
2023-01-17T12:07:52.302Z,3
2023-01-17T12:13:52.355Z,3
2023-01-17T12:19:52.322Z,3
2023-01-17T12:25:52.291Z,2
2023-01-17T12:31:52.324Z,2
2023-01-17T12:38:03.943Z,2
2023-01-17T12:43:53.127Z,2
2023-01-17T12:49:52.964Z,3
2023-01-17T12:55:52.545Z,3
2023-01-17T13:01:52.876Z,3
2023-01-17T13:07:52.570Z,2
2023-01-17T13:13:53.729Z,3
2023-01-17T13:19:52.526Z,2
2023-01-17T13:25:52.446Z,2
2023-01-17T13:31:52.416Z,1
2023-01-17T13:37:52.327Z,1
2023-01-17T13:43:52.435Z,2
2023-01-17T13:49:52.487Z,2
2023-01-17T13:55:52.371Z,2
2023-01-17T14:01:52.491Z,1
2023-01-17T14:07:52.443Z,1
2023-01-17T14:13:52.815Z,2
2023-01-17T14:19:52.502Z,2
2023-01-17T14:25:52.352Z,1
2023-01-17T14:31:52.488Z,2
2023-01-17T14:37:52.892Z,1
2023-01-17T14:43:52.896Z,2
2023-01-17T14:49:52.972Z,1
2023-01-17T14:55:52.514Z,1
2023-01-17T15:02:06.663Z,2
2023-01-17T15:07:52.866Z,2
2023-01-17T15:13:52.658Z,1
2023-01-17T15:19:52.623Z,2
2023-01-17T15:25:52.973Z,2
2023-01-17T15:31:53.184Z,2
2023-01-17T15:37:52.729Z,2
2023-01-17T15:43:52.498Z,2
2023-01-17T15:49:52.419Z,2
2023-01-17T15:55:52.544Z,2
2023-01-17T16:01:52.772Z,2
2023-01-17T16:07:52.360Z,3
2023-01-17T16:13:52.547Z,3
2023-01-17T16:19:52.576Z,3
2023-01-17T16:25:52.572Z,4
2023-01-17T16:31:53.039Z,4
2023-01-17T16:37:53.168Z,4
2023-01-17T16:43:52.605Z,5
2023-01-17T16:49:53.218Z,8
2023-01-17T16:55:52.858Z,8
2023-01-17T17:01:53.158Z,6
2023-01-17T17:07:53.083Z,6
2023-01-17T17:13:53.039Z,5
2023-01-17T17:19:53.423Z,4
2023-01-17T17:25:52.659Z,6
2023-01-17T17:31:52.919Z,7
2023-01-17T17:37:53.402Z,6
2023-01-17T17:43:52.841Z,7
2023-01-17T17:49:53.454Z,7
2023-01-17T17:55:52.712Z,8
2023-01-17T18:01:53.242Z,6
2023-01-17T18:07:53.449Z,7
2023-01-17T18:13:52.876Z,6
2023-01-17T18:19:52.693Z,8
2023-01-17T18:25:52.691Z,9
2023-01-17T18:31:52.891Z,10
2023-01-17T18:37:52.932Z,10
2023-01-17T18:43:52.661Z,10
2023-01-17T18:49:53.574Z,10
2023-01-17T18:55:54.908Z,10
2023-01-17T19:01:52.858Z,10
2023-01-17T19:07:53.898Z,11
2023-01-17T19:13:52.760Z,11
2023-01-17T19:19:52.868Z,9
2023-01-17T19:25:53.358Z,11
2023-01-17T19:31:52.990Z,10
2023-01-17T19:37:52.613Z,10
2023-01-17T19:43:52.641Z,10
2023-01-17T19:49:52.756Z,10
2023-01-17T19:55:53.362Z,10
2023-01-17T20:01:53.019Z,10
2023-01-17T20:07:53.214Z,11
2023-01-17T20:13:52.727Z,11
2023-01-17T20:19:53.192Z,13
2023-01-17T20:25:52.828Z,14
2023-01-17T20:31:52.954Z,12
2023-01-17T20:37:52.697Z,12
2023-01-17T20:43:52.704Z,13
2023-01-17T20:49:53.229Z,12
2023-01-17T20:55:52.698Z,14
2023-01-17T21:01:53.196Z,14
2023-01-17T21:07:52.706Z,13
2023-01-17T21:13:52.818Z,13
2023-01-17T21:19:52.787Z,13
2023-01-17T21:25:55.556Z,13
2023-01-17T21:31:53.089Z,14
2023-01-17T21:37:52.675Z,13
2023-01-17T21:43:52.788Z,14
2023-01-17T21:49:52.851Z,14
2023-01-17T21:55:53.059Z,13
2023-01-17T22:01:53.128Z,12
2023-01-17T22:07:52.783Z,13
2023-01-17T22:13:52.700Z,14
2023-01-17T22:19:52.771Z,13
2023-01-17T22:25:52.909Z,13
2023-01-17T22:31:54.078Z,13
2023-01-17T22:37:53.004Z,13
2023-01-17T22:43:52.901Z,13
2023-01-17T22:49:52.852Z,12
2023-01-17T22:55:52.872Z,13
2023-01-17T23:01:53.107Z,12
2023-01-17T23:07:52.991Z,12
2023-01-17T23:13:52.861Z,12
2023-01-17T23:19:52.748Z,13
2023-01-17T23:25:52.719Z,11
2023-01-17T23:31:53.112Z,11
2023-01-17T23:37:52.868Z,12
2023-01-17T23:43:52.829Z,13
2023-01-17T23:49:53.246Z,11
2023-01-17T23:55:53.015Z,11
